createdAt,value
2022-10-05T00:00:00.081Z,101527.03
2022-10-05T00:02:26.900Z,101526.75
2022-10-05T00:04:56.494Z,101533.50
2022-10-05T00:07:24.222Z,101524.78
2022-10-05T00:09:58.689Z,101516.38
2022-10-05T00:12:27.278Z,101516.66
2022-10-05T00:15:00.766Z,101518.31
2022-10-05T00:17:30.091Z,101519.72
2022-10-05T00:19:56.740Z,101526.19
2022-10-05T00:22:32.148Z,101526.47
2022-10-05T00:25:01.451Z,101527.31
2022-10-05T00:27:37.451Z,101528.13
2022-10-05T00:30:12.951Z,101521.94
2022-10-05T00:32:39.409Z,101516.38
2022-10-05T00:35:06.483Z,101513.81
2022-10-05T00:37:33.123Z,101522.25
2022-10-05T00:39:59.498Z,101516.63
2022-10-05T00:43:08.727Z,101507.94
2022-10-05T00:45:45.860Z,101503.72
2022-10-05T00:48:39.039Z,101503.72
2022-10-05T00:51:20.380Z,101497.25
2022-10-05T00:53:56.703Z,101490.53
2022-10-05T00:56:54.018Z,101489.13
2022-10-05T00:59:43.126Z,101487.75
2022-10-05T01:02:15.936Z,101490.53
2022-10-05T01:04:54.019Z,101492.78
2022-10-05T01:07:47.774Z,101481.53
2022-10-05T01:10:37.210Z,101492.47
2022-10-05T01:13:22.856Z,101479.03
2022-10-05T01:16:04.608Z,101474.53
2022-10-05T01:19:12.763Z,101467.25
2022-10-05T01:21:49.962Z,101464.72
2022-10-05T01:24:30.670Z,101466.13
2022-10-05T01:27:21.373Z,101471.44
2022-10-05T01:29:58.111Z,101469.19
2022-10-05T01:32:48.347Z,101458.81
2022-10-05T01:35:19.902Z,101466.97
2022-10-05T01:38:20.209Z,101467.53
2022-10-05T01:40:57.735Z,101465.84
2022-10-05T01:43:27.074Z,101464.41
2022-10-05T01:46:00.451Z,101466.41
2022-10-05T01:48:42.656Z,101467.81
2022-10-05T01:51:25.690Z,101464.97
2022-10-05T01:54:34.655Z,101470.03
2022-10-05T01:57:22.975Z,101469.75
2022-10-05T02:00:10.750Z,101484.06
2022-10-05T02:02:50.481Z,101475.66
2022-10-05T02:05:22.321Z,101483.50
2022-10-05T02:08:01.668Z,101479.56
2022-10-05T02:10:36.335Z,101480.09
2022-10-05T02:13:26.852Z,101482.94
2022-10-05T02:16:00.412Z,101480.69
2022-10-05T02:18:32.628Z,101483.50
2022-10-05T02:21:04.215Z,101473.94
2022-10-05T02:23:35.574Z,101479.00
2022-10-05T02:26:03.102Z,101477.31
2022-10-05T02:28:37.747Z,101475.03
2022-10-05T02:31:12.503Z,101479.00
2022-10-05T02:33:39.374Z,101483.47
2022-10-05T02:36:22.917Z,101493.31
2022-10-05T02:38:59.789Z,101483.19
2022-10-05T02:41:40.774Z,101478.41
2022-10-05T02:44:33.137Z,101480.91
2022-10-05T02:47:10.467Z,101485.97
2022-10-05T02:49:56.461Z,101478.69
2022-10-05T02:52:53.247Z,101471.09
2022-10-05T02:55:42.054Z,101471.66
2022-10-05T02:58:23.260Z,101475.91
2022-10-05T03:01:07.299Z,101463.25
2022-10-05T03:03:47.018Z,101462.44
2022-10-05T03:06:23.003Z,101461.56
2022-10-05T03:09:02.877Z,101470.56
2022-10-05T03:11:56.415Z,101466.06
2022-10-05T03:14:42.920Z,101459.06
2022-10-05T03:17:22.296Z,101453.16
2022-10-05T03:20:20.053Z,101446.72
2022-10-05T03:22:57.961Z,101447.00
2022-10-05T03:25:47.622Z,101443.66
2022-10-05T03:28:23.562Z,101445.06
2022-10-05T03:31:22.909Z,101443.38
2022-10-05T03:34:01.843Z,101434.94
2022-10-05T03:36:50.237Z,101436.66
2022-10-05T03:39:46.382Z,101430.47
2022-10-05T03:42:21.455Z,101433.81
2022-10-05T03:45:07.302Z,101433.81
2022-10-05T03:47:46.653Z,101429.63
2022-10-05T03:50:32.253Z,101419.53
2022-10-05T03:53:09.229Z,101420.94
2022-10-05T03:55:49.646Z,101407.75
2022-10-05T03:58:19.302Z,101408.03
2022-10-05T04:00:52.011Z,101404.66
2022-10-05T04:03:33.722Z,101406.91
2022-10-05T04:06:13.622Z,101402.69
2022-10-05T04:08:48.243Z,101409.69
2022-10-05T04:11:22.908Z,101405.50
2022-10-05T04:13:59.449Z,101413.06
2022-10-05T04:16:30.981Z,101407.47
2022-10-05T04:19:04.923Z,101409.97
2022-10-05T04:22:00.465Z,101419.81
2022-10-05T04:24:56.222Z,101423.44
2022-10-05T04:27:30.895Z,101414.47
2022-10-05T04:30:09.221Z,101413.91
2022-10-05T04:32:43.305Z,101398.47
2022-10-05T04:35:31.070Z,101412.50
2022-10-05T04:38:19.132Z,101422.91
2022-10-05T04:41:14.762Z,101425.13
2022-10-05T04:44:19.384Z,101420.06
2022-10-05T04:47:09.000Z,101416.13
2022-10-05T04:50:06.019Z,101426.53
2022-10-05T04:52:49.215Z,101407.72
2022-10-05T04:55:31.473Z,101414.19
2022-10-05T04:58:14.768Z,101416.44
2022-10-05T05:01:23.706Z,101400.19
2022-10-05T05:04:09.029Z,101394.25
2022-10-05T05:06:40.828Z,101400.72
2022-10-05T05:09:36.975Z,101401.56
2022-10-05T05:12:27.763Z,101415.88
2022-10-05T05:15:23.862Z,101419.25
2022-10-05T05:18:06.031Z,101420.09
2022-10-05T05:20:46.462Z,101417.00
2022-10-05T05:23:22.638Z,101415.06
2022-10-05T05:30:11.298Z,101402.69
2022-10-05T05:33:07.632Z,101391.19
2022-10-05T05:36:01.631Z,101385.59
2022-10-05T05:38:35.209Z,101382.78
2022-10-05T05:41:30.423Z,101380.53
2022-10-05T05:44:10.059Z,101379.94
2022-10-05T05:47:02.453Z,101385.59
2022-10-05T05:50:07.328Z,101392.59
2022-10-05T05:53:06.468Z,101403.53
2022-10-05T05:55:41.006Z,101400.44
2022-10-05T05:58:16.952Z,101399.03
2022-10-05T06:00:53.957Z,101395.97
2022-10-05T06:03:25.941Z,101392.31
2022-10-05T06:06:00.510Z,101396.25
2022-10-05T06:08:47.892Z,101396.25
2022-10-05T06:11:29.285Z,101390.63
2022-10-05T06:14:01.014Z,101395.41
2022-10-05T06:16:38.591Z,101391.19
2022-10-05T06:19:11.717Z,101395.97
2022-10-05T06:21:56.361Z,101393.69
2022-10-05T06:24:51.948Z,101407.47
2022-10-05T06:27:37.011Z,101405.78
2022-10-05T06:30:07.971Z,101401.84
2022-10-05T06:33:00.123Z,101410.25
2022-10-05T06:35:53.284Z,101412.78
2022-10-05T06:38:39.163Z,101411.38
2022-10-05T06:41:27.608Z,101414.75
2022-10-05T06:44:07.900Z,101413.88
2022-10-05T06:47:05.901Z,101416.41
2022-10-05T06:50:03.839Z,101407.13
2022-10-05T06:53:37.173Z,101402.03
2022-10-05T06:56:23.937Z,101419.19
2022-10-05T06:59:13.580Z,101415.81
2022-10-05T07:01:58.461Z,101413.53
2022-10-05T07:04:49.250Z,101418.88
2022-10-05T07:07:37.680Z,101416.34
2022-10-05T07:10:24.750Z,101418.56
2022-10-05T07:13:17.484Z,101422.75
2022-10-05T07:16:01.486Z,101421.88
2022-10-05T07:18:47.988Z,101415.66
2022-10-05T07:21:39.457Z,101409.44
2022-10-05T07:24:38.090Z,101413.06
2022-10-05T07:27:20.356Z,101412.78
2022-10-05T07:30:01.419Z,101411.88
2022-10-05T07:32:44.792Z,101414.91
2022-10-05T07:35:39.416Z,101417.72
2022-10-05T07:38:33.292Z,101426.94
2022-10-05T07:41:14.505Z,101427.69
2022-10-05T07:44:04.334Z,101428.72
2022-10-05T07:46:38.522Z,101424.84
2022-10-05T07:49:16.068Z,101419.72
2022-10-05T07:51:48.271Z,101424.19
2022-10-05T07:54:22.072Z,101429.19
2022-10-05T07:56:55.976Z,101444.94
2022-10-05T07:59:31.787Z,101438.66
2022-10-05T08:02:17.670Z,101429.03
2022-10-05T08:05:05.135Z,101417.72
2022-10-05T08:07:34.788Z,101407.50
2022-10-05T08:10:27.621Z,101404.66
2022-10-05T08:13:07.563Z,101395.75
2022-10-05T08:15:45.871Z,101401.16
2022-10-05T08:18:54.471Z,101398.25
2022-10-05T08:21:27.768Z,101394.66
2022-10-05T08:23:58.908Z,101394.88
2022-10-05T08:26:43.968Z,101384.66
2022-10-05T08:29:22.512Z,101390.16
2022-10-05T08:32:03.312Z,101373.94
2022-10-05T08:34:37.290Z,101371.31
2022-10-05T08:37:19.997Z,101377.41
2022-10-05T08:40:00.505Z,101375.16
2022-10-05T08:42:39.274Z,101377.88
2022-10-05T08:45:23.679Z,101372.78
2022-10-05T08:48:13.576Z,101367.75
2022-10-05T08:51:15.870Z,101360.28
2022-10-05T08:54:07.099Z,101359.88
2022-10-05T08:56:43.106Z,101353.63
2022-10-05T08:59:42.850Z,101352.63
2022-10-05T09:02:20.596Z,101350.72
2022-10-05T09:05:11.767Z,101349.50
2022-10-05T09:07:44.066Z,101354.19
2022-10-05T09:10:42.187Z,101352.69
2022-10-05T09:13:42.844Z,101358.25
2022-10-05T09:16:38.496Z,101350.34
2022-10-05T09:19:32.544Z,101355.38
2022-10-05T09:22:19.983Z,101354.97
2022-10-05T09:24:59.482Z,101351.13
2022-10-05T09:27:48.561Z,101350.03
2022-10-05T09:30:29.257Z,101342.50
2022-10-05T09:33:10.986Z,101343.03
2022-10-05T09:36:04.560Z,101330.81
2022-10-05T09:39:08.673Z,101334.00
2022-10-05T09:41:34.974Z,101330.31
2022-10-05T09:44:04.435Z,101329.97
2022-10-05T09:46:44.318Z,101331.00
2022-10-05T09:49:42.230Z,101324.63
2022-10-05T09:52:27.375Z,101313.41
2022-10-05T09:55:33.282Z,101313.41
2022-10-05T09:58:38.036Z,101311.50
2022-10-05T10:01:39.284Z,101311.47
2022-10-05T10:04:10.068Z,101305.88
2022-10-05T10:06:55.009Z,101309.56
2022-10-05T10:09:46.719Z,101299.16
2022-10-05T10:12:28.338Z,101294.03
2022-10-05T10:15:18.231Z,101301.84
2022-10-05T10:18:05.455Z,101300.84
2022-10-05T10:21:01.886Z,101305.88
2022-10-05T10:24:11.018Z,101312.91
2022-10-05T10:27:11.573Z,101324.88
2022-10-05T10:30:00.992Z,101319.78
2022-10-05T10:32:55.327Z,101322.31
2022-10-05T10:35:33.374Z,101318.47
2022-10-05T10:38:30.885Z,101306.38
2022-10-05T10:41:12.255Z,101315.50
2022-10-05T10:43:54.007Z,101317.50
2022-10-05T10:46:37.782Z,101319.13
2022-10-05T10:49:41.198Z,101320.91
2022-10-05T10:52:24.772Z,101317.41
2022-10-05T10:55:21.179Z,101310.00
2022-10-05T10:58:06.255Z,101309.56
2022-10-05T11:01:10.962Z,101306.38
2022-10-05T11:04:18.507Z,101298.06
2022-10-05T11:07:09.890Z,101308.50
2022-10-05T11:10:15.287Z,101284.75
2022-10-05T11:13:19.179Z,101299.97
2022-10-05T11:16:26.128Z,101297.09
2022-10-05T11:19:21.714Z,101294.59
2022-10-05T11:22:09.527Z,101278.69
2022-10-05T11:24:57.957Z,101281.88
2022-10-05T11:27:41.687Z,101276.69
2022-10-05T11:30:55.649Z,101267.81
2022-10-05T11:33:21.999Z,101266.31
2022-10-05T11:36:07.003Z,101266.66
2022-10-05T11:39:02.041Z,101268.63
2022-10-05T11:41:49.895Z,101270.16
2022-10-05T11:44:57.543Z,101264.47
2022-10-05T11:47:45.577Z,101262.16
2022-10-05T11:50:12.031Z,101261.97
2022-10-05T11:52:49.272Z,101258.50
2022-10-05T11:55:26.303Z,101258.50
2022-10-05T11:57:58.705Z,101255.97
2022-10-05T12:00:31.674Z,101242.41
2022-10-05T12:03:24.601Z,101247.66
2022-10-05T12:06:19.364Z,101251.28
2022-10-05T12:09:00.686Z,101250.19
2022-10-05T12:11:57.940Z,101240.78
2022-10-05T12:14:34.343Z,101237.53
2022-10-05T12:17:11.085Z,101239.34
2022-10-05T12:20:00.210Z,101233.63
2022-10-05T12:22:40.483Z,101244.41
2022-10-05T12:25:19.118Z,101225.63
2022-10-05T12:27:51.995Z,101221.63
2022-10-05T12:30:55.291Z,101225.91
2022-10-05T12:33:30.775Z,101220.94
2022-10-05T12:36:05.512Z,101209.31
2022-10-05T12:38:45.019Z,101211.91
2022-10-05T12:41:25.322Z,101210.03
2022-10-05T12:44:06.367Z,101202.09
2022-10-05T12:47:10.082Z,101203.94
2022-10-05T12:50:15.025Z,101207.78
2022-10-05T12:53:24.483Z,101200.28
2022-10-05T12:56:18.897Z,101199.22
2022-10-05T12:58:57.673Z,101199.34
2022-10-05T13:01:43.285Z,101197.91
2022-10-05T13:04:26.078Z,101203.94
2022-10-05T13:07:09.464Z,101198.50
2022-10-05T13:09:42.792Z,101209.19
2022-10-05T13:12:35.297Z,101201.81
2022-10-05T13:15:15.195Z,101202.06
2022-10-05T13:17:54.543Z,101206.25
2022-10-05T13:21:01.146Z,101208.38
2022-10-05T13:23:57.571Z,101203.63
2022-10-05T13:26:32.434Z,101199.59
2022-10-05T13:29:23.656Z,101198.41
2022-10-05T13:32:03.626Z,101199.72
2022-10-05T13:34:50.199Z,101196.09
2022-10-05T13:37:33.848Z,101188.31
2022-10-05T13:40:19.084Z,101186.66
2022-10-05T13:43:04.030Z,101184.38
2022-10-05T13:45:51.249Z,101181.75
2022-10-05T13:48:47.268Z,101178.06
2022-10-05T13:51:24.866Z,101182.94
2022-10-05T13:54:00.934Z,101179.53
2022-10-05T13:56:33.429Z,101190.56
2022-10-05T13:59:28.133Z,101181.88
2022-10-05T14:02:36.891Z,101186.88
2022-10-05T14:05:15.671Z,101180.47
2022-10-05T14:07:55.499Z,101177.84
2022-10-05T14:10:43.691Z,101166.31
2022-10-05T14:13:13.348Z,101167.38
2022-10-05T14:15:42.304Z,101154.81
2022-10-05T14:18:24.459Z,101162.63
2022-10-05T14:21:12.682Z,101161.44
2022-10-05T14:23:39.276Z,101146.13
2022-10-05T14:26:35.567Z,101144.94
2022-10-05T14:29:14.159Z,101140.03
2022-10-05T14:31:50.770Z,101124.59
2022-10-05T14:34:39.232Z,101139.47
2022-10-05T14:37:20.755Z,101124.06
2022-10-05T14:39:49.888Z,101129.94
2022-10-05T14:42:25.222Z,101122.44
2022-10-05T14:45:11.877Z,101123.00
2022-10-05T14:48:00.201Z,101114.78
2022-10-05T14:50:29.747Z,101120.72
2022-10-05T14:53:11.078Z,101119.06
2022-10-05T14:55:46.811Z,101129.75
2022-10-05T14:58:42.861Z,101122.84
2022-10-05T15:01:35.168Z,101115.41
2022-10-05T15:04:26.051Z,101122.38
2022-10-05T15:07:22.076Z,101115.59
2022-10-05T15:10:06.834Z,101113.97
2022-10-05T15:12:37.774Z,101108.53
2022-10-05T15:15:27.397Z,101112.59
2022-10-05T15:18:15.850Z,101111.78
2022-10-05T15:20:52.312Z,101107.34
2022-10-05T15:23:40.675Z,101118.06
2022-10-05T15:26:38.452Z,101109.16
2022-10-05T15:29:35.083Z,101116.88
2022-10-05T15:32:25.268Z,101117.13
2022-10-05T15:35:25.875Z,101109.13
2022-10-05T15:37:55.075Z,101115.94
2022-10-05T15:40:37.307Z,101116.06
2022-10-05T15:43:11.399Z,101105.56
2022-10-05T15:45:44.122Z,101107.91
2022-10-05T15:48:36.156Z,101115.66
2022-10-05T15:51:30.565Z,101109.63
2022-10-05T15:54:24.360Z,101108.88
2022-10-05T15:56:59.272Z,101114.44
2022-10-05T15:59:56.990Z,101114.16
2022-10-05T16:02:33.012Z,101112.97
2022-10-05T16:05:12.067Z,101116.91
2022-10-05T16:08:04.701Z,101122.53
2022-10-05T16:10:36.928Z,101113.25
2022-10-05T16:13:12.256Z,101113.41
2022-10-05T16:16:12.550Z,101101.72
2022-10-05T16:18:53.306Z,101098.59
2022-10-05T16:21:36.376Z,101107.59
2022-10-05T16:24:15.683Z,101100.59
2022-10-05T16:26:59.528Z,101101.25
2022-10-05T16:29:35.966Z,101092.91
2022-10-05T16:32:16.523Z,101094.44
2022-10-05T16:34:59.913Z,101085.94
2022-10-05T16:37:58.436Z,101093.44
2022-10-05T16:41:01.904Z,101088.13
2022-10-05T16:43:40.626Z,101086.78
2022-10-05T16:46:27.727Z,101090.94
2022-10-05T16:49:16.210Z,101090.59
2022-10-05T16:51:59.719Z,101092.09
2022-10-05T16:54:47.868Z,101091.94
2022-10-05T16:57:36.560Z,101090.75
2022-10-05T17:00:30.658Z,101102.91
2022-10-05T17:03:18.362Z,101097.88
2022-10-05T17:06:02.399Z,101091.69
2022-10-05T17:08:49.853Z,101102.03
2022-10-05T17:11:27.546Z,101095.50
2022-10-05T17:14:15.948Z,101093.66
2022-10-05T17:17:06.974Z,101096.97
2022-10-05T17:19:39.321Z,101097.56
2022-10-05T17:22:26.397Z,101101.78
2022-10-05T17:25:18.257Z,101109.56
2022-10-05T17:28:16.405Z,101101.22
2022-10-05T17:30:58.980Z,101107.78
2022-10-05T17:33:31.245Z,101108.91
2022-10-05T17:36:08.543Z,101108.28
2022-10-05T17:38:34.898Z,101117.59
2022-10-05T17:41:21.811Z,101113.38
2022-10-05T17:44:16.963Z,101105.00
2022-10-05T17:47:00.738Z,101114.91
2022-10-05T17:50:13.786Z,101105.50
2022-10-05T17:53:02.282Z,101105.72
2022-10-05T17:55:32.096Z,101101.31
2022-10-05T17:58:19.906Z,101103.38
2022-10-05T18:01:04.436Z,101103.44
2022-10-05T18:03:47.479Z,101103.06
2022-10-05T18:06:25.944Z,101103.28
2022-10-05T18:09:22.851Z,101101.81
2022-10-05T18:12:17.781Z,101106.75
2022-10-05T18:14:58.705Z,101100.88
2022-10-05T18:17:43.772Z,101097.22
2022-10-05T18:20:27.047Z,101103.09
2022-10-05T18:23:15.572Z,101098.28
2022-10-05T18:25:56.593Z,101104.56
2022-10-05T18:28:28.609Z,101096.06
2022-10-05T18:31:30.477Z,101104.31
2022-10-05T18:34:26.154Z,101101.72
2022-10-05T18:37:16.852Z,101093.66
2022-10-05T18:39:59.003Z,101086.56
2022-10-05T18:42:43.896Z,101093.03
2022-10-05T18:45:38.928Z,101092.00
2022-10-05T18:48:25.499Z,101093.69
2022-10-05T18:51:22.786Z,101096.00
2022-10-05T18:54:25.893Z,101096.56
2022-10-05T18:56:52.913Z,101098.28
2022-10-05T18:59:49.775Z,101092.72
2022-10-05T19:02:25.401Z,101091.06
2022-10-05T19:05:29.279Z,101095.84
2022-10-05T19:08:13.529Z,101096.81
2022-10-05T19:10:50.713Z,101104.13
2022-10-05T19:13:37.684Z,101104.47
2022-10-05T19:16:23.752Z,101108.31
2022-10-05T19:19:14.263Z,101124.44
2022-10-05T19:21:49.862Z,101126.53
2022-10-05T19:24:37.574Z,101124.63
2022-10-05T19:27:26.262Z,101126.00
2022-10-05T19:30:18.825Z,101133.00
2022-10-05T19:33:04.997Z,101135.31
2022-10-05T19:36:02.028Z,101132.19
2022-10-05T19:38:44.581Z,101143.47
2022-10-05T19:41:19.908Z,101143.88
2022-10-05T19:44:10.923Z,101149.66
2022-10-05T19:46:58.038Z,101153.94
2022-10-05T19:49:49.219Z,101156.13
2022-10-05T19:52:21.077Z,101164.28
2022-10-05T19:55:00.463Z,101167.72
2022-10-05T19:57:26.864Z,101167.09
2022-10-05T19:59:56.604Z,101162.28
2022-10-05T20:02:26.922Z,101169.53
2022-10-05T20:04:55.051Z,101173.19
2022-10-05T20:07:22.853Z,101175.47
2022-10-05T20:09:50.691Z,101167.31
2022-10-05T20:12:17.082Z,101172.75
2022-10-05T20:15:02.230Z,101172.53
2022-10-05T20:17:48.047Z,101181.00
2022-10-05T20:20:47.106Z,101180.59
2022-10-05T20:23:19.963Z,101196.06
2022-10-05T20:26:06.708Z,101200.50
2022-10-05T20:28:33.601Z,101207.16
2022-10-05T20:31:00.151Z,101213.34
2022-10-05T20:33:27.518Z,101210.19
2022-10-05T20:35:54.600Z,101212.94
2022-10-05T20:38:21.808Z,101221.75
2022-10-05T20:40:48.571Z,101220.50
2022-10-05T20:43:15.238Z,101222.16
2022-10-05T20:45:43.290Z,101230.97
2022-10-05T20:48:11.002Z,101227.16
2022-10-05T20:50:37.467Z,101224.16
2022-10-05T20:53:09.639Z,101237.00
2022-10-05T20:55:38.074Z,101238.81
2022-10-05T20:58:04.451Z,101238.72
2022-10-05T21:00:50.840Z,101243.19
2022-10-05T21:03:18.557Z,101238.91
2022-10-05T21:05:46.055Z,101234.41
2022-10-05T21:08:12.434Z,101240.38
2022-10-05T21:10:38.814Z,101239.44
2022-10-05T21:13:05.882Z,101241.94
2022-10-05T21:15:32.511Z,101243.19
2022-10-05T21:17:58.907Z,101246.22
2022-10-05T21:20:25.327Z,101249.28
2022-10-05T21:22:51.713Z,101243.38
2022-10-05T21:25:18.119Z,101253.03
2022-10-05T21:27:44.715Z,101255.56
2022-10-05T21:30:11.426Z,101252.50
2022-10-05T21:32:43.230Z,101255.22
2022-10-05T21:35:10.730Z,101250.22
2022-10-05T21:37:37.108Z,101253.34
2022-10-05T21:40:03.702Z,101258.06
2022-10-05T21:42:30.108Z,101253.56
2022-10-05T21:44:56.510Z,101263.72
2022-10-05T21:47:22.956Z,101259.84
2022-10-05T21:49:49.424Z,101262.53
2022-10-05T21:52:15.823Z,101265.06
2022-10-05T21:54:42.206Z,101263.50
2022-10-05T21:57:12.016Z,101266.22
2022-10-05T21:59:39.387Z,101261.41
2022-10-05T22:02:05.954Z,101266.22
2022-10-05T22:04:32.321Z,101268.00
2022-10-05T22:06:59.195Z,101256.38
2022-10-05T22:09:25.611Z,101260.88
2022-10-05T22:11:52.110Z,101266.88
2022-10-05T22:14:18.538Z,101260.69
2022-10-05T22:16:45.019Z,101261.31
2022-10-05T22:19:16.343Z,101268.53
2022-10-05T22:21:42.826Z,101272.19
2022-10-05T22:24:11.567Z,101260.44
2022-10-05T22:26:39.893Z,101273.84
2022-10-05T22:29:06.358Z,101272.63
2022-10-05T22:31:32.927Z,101269.06
2022-10-05T22:33:59.353Z,101286.22
2022-10-05T22:36:26.065Z,101279.19
2022-10-05T22:38:52.555Z,101291.25
2022-10-05T22:41:19.442Z,101281.19
2022-10-05T22:43:50.163Z,101288.72
2022-10-05T22:46:17.119Z,101286.41
2022-10-05T22:48:43.542Z,101293.75
2022-10-05T22:51:10.301Z,101291.44
2022-10-05T22:53:37.011Z,101293.34
2022-10-05T22:56:12.023Z,101289.25
2022-10-05T22:58:39.626Z,101300.78
2022-10-05T23:01:11.937Z,101294.59
2022-10-05T23:03:38.424Z,101301.19
2022-10-05T23:06:11.198Z,101305.66
2022-10-05T23:08:38.469Z,101310.19
2022-10-05T23:11:11.191Z,101307.25
2022-10-05T23:13:37.915Z,101307.25
2022-10-05T23:16:09.655Z,101312.91
2022-10-05T23:18:36.122Z,101312.38
2022-10-05T23:21:03.122Z,101314.16
2022-10-05T23:23:29.507Z,101309.13
2022-10-05T23:26:00.433Z,101312.19
2022-10-05T23:28:28.008Z,101316.78
2022-10-05T23:31:02.920Z,101318.66
2022-10-05T23:33:29.767Z,101330.50
2022-10-05T23:36:00.087Z,101330.06
2022-10-05T23:38:27.096Z,101330.59
2022-10-05T23:40:53.712Z,101327.69
2022-10-05T23:43:20.103Z,101333.19
2022-10-05T23:45:46.964Z,101331.66
2022-10-05T23:48:13.435Z,101333.53
2022-10-05T23:50:40.244Z,101330.38
2022-10-05T23:53:06.855Z,101336.91
2022-10-05T23:55:33.234Z,101341.59
2022-10-05T23:57:59.623Z,101342.75
